Terminal Aerodrome Forecast
Issued by NWS St Louis, MO

Home | Current Version | Previous Version | Text Only | Print | Product List | Glossary On
Versions: 1 2 3 4 5 6 7 8 9 10 11 12 13 14 15 16 17 18 19 20 21 22 23 24 25 26 27 28 29 30 31 32 33 34 35 36
161
FTUS43 KLSX 020856 AAA
TAFSTL
TAF AMD
KSTL 020856Z 0209/0312 32009KT P6SM SCT015 BKN025
     FM021200 31008KT P6SM VCSH BKN015 OVC040
     FM021800 32008KT P6SM VCSH BKN025 OVC040
     FM030000 32006KT P6SM BKN035=

USA.gov is the U.S. government's official web portal to all federal, state and local government web resources and services.